sensor_id;sensor_type;location;lat;lon;timestamp;pressure;altitude;pressure_sealevel;temperature;humidity
9822;BME280;4950;46.042;14.472;2022-09-06T00:02:13;98442.63;;;19.49;81.04
9822;BME280;4950;46.042;14.472;2022-09-06T00:04:40;98452.50;;;19.54;80.63
9822;BME280;4950;46.042;14.472;2022-09-06T00:07:06;98443.78;;;19.53;80.83
9822;BME280;4950;46.042;14.472;2022-09-06T00:09:33;98448.19;;;19.60;80.68
9822;BME280;4950;46.042;14.472;2022-09-06T00:12:03;98432.75;;;19.63;80.54
9822;BME280;4950;46.042;14.472;2022-09-06T00:14:33;98433.13;;;19.67;80.46
9822;BME280;4950;46.042;14.472;2022-09-06T00:16:59;98432.88;;;19.68;80.45
9822;BME280;4950;46.042;14.472;2022-09-06T00:19:26;98434.50;;;19.69;80.26
9822;BME280;4950;46.042;14.472;2022-09-06T00:21:53;98435.50;;;19.68;80.05
9822;BME280;4950;46.042;14.472;2022-09-06T00:24:20;98437.94;;;19.70;80.45
9822;BME280;4950;46.042;14.472;2022-09-06T00:26:47;98431.88;;;19.69;80.22
9822;BME280;4950;46.042;14.472;2022-09-06T00:29:14;98434.72;;;19.68;80.36
9822;BME280;4950;46.042;14.472;2022-09-06T00:31:41;98429.91;;;19.65;80.67
9822;BME280;4950;46.042;14.472;2022-09-06T00:34:08;98438.00;;;19.63;80.52
9822;BME280;4950;46.042;14.472;2022-09-06T00:36:34;98433.34;;;19.65;80.72
9822;BME280;4950;46.042;14.472;2022-09-06T00:39:01;98430.25;;;19.68;80.43
9822;BME280;4950;46.042;14.472;2022-09-06T00:41:28;98431.66;;;19.71;80.46
9822;BME280;4950;46.042;14.472;2022-09-06T00:43:54;98430.84;;;19.70;80.45
9822;BME280;4950;46.042;14.472;2022-09-06T00:46:24;98430.03;;;19.70;80.54
9822;BME280;4950;46.042;14.472;2022-09-06T00:48:54;98431.88;;;19.69;80.51
9822;BME280;4950;46.042;14.472;2022-09-06T00:51:24;98433.50;;;19.70;80.53
9822;BME280;4950;46.042;14.472;2022-09-06T00:53:52;98426.19;;;19.72;80.33
9822;BME280;4950;46.042;14.472;2022-09-06T00:56:19;98423.97;;;19.69;80.40
9822;BME280;4950;46.042;14.472;2022-09-06T00:58:46;98412.41;;;19.70;80.22
9822;BME280;4950;46.042;14.472;2022-09-06T01:01:14;98425.59;;;19.70;80.31
9822;BME280;4950;46.042;14.472;2022-09-06T01:03:42;98424.19;;;19.68;80.55
9822;BME280;4950;46.042;14.472;2022-09-06T01:06:19;98422.72;;;19.53;80.93
9822;BME280;4950;46.042;14.472;2022-09-06T01:08:58;98420.41;;;19.39;81.71
9822;BME280;4950;46.042;14.472;2022-09-06T01:14:37;98415.97;;;19.39;81.58
9822;BME280;4950;46.042;14.472;2022-09-06T01:17:12;98411.31;;;19.41;81.27
9822;BME280;4950;46.042;14.472;2022-09-06T01:23:08;98414.53;;;19.43;81.33
9822;BME280;4950;46.042;14.472;2022-09-06T01:25:51;98411.06;;;19.43;81.26
9822;BME280;4950;46.042;14.472;2022-09-06T01:28:29;98409.25;;;19.43;81.38
9822;BME280;4950;46.042;14.472;2022-09-06T01:31:04;98399.66;;;19.49;81.20
9822;BME280;4950;46.042;14.472;2022-09-06T01:33:40;98405.66;;;19.56;81.03
9822;BME280;4950;46.042;14.472;2022-09-06T01:36:13;98404.19;;;19.60;80.86
9822;BME280;4950;46.042;14.472;2022-09-06T01:38:42;98402.03;;;19.57;81.06
9822;BME280;4950;46.042;14.472;2022-09-06T01:41:09;98401.56;;;19.60;80.97
9822;BME280;4950;46.042;14.472;2022-09-06T01:43:39;98398.94;;;19.60;80.99
9822;BME280;4950;46.042;14.472;2022-09-06T01:46:14;98400.78;;;19.60;81.00
9822;BME280;4950;46.042;14.472;2022-09-06T01:49:08;98405.25;;;19.59;81.01
9822;BME280;4950;46.042;14.472;2022-09-06T01:51:49;98404.66;;;19.57;80.79
9822;BME280;4950;46.042;14.472;2022-09-06T01:54:29;98406.16;;;19.46;81.01
9822;BME280;4950;46.042;14.472;2022-09-06T01:57:11;98401.34;;;19.43;81.18
9822;BME280;4950;46.042;14.472;2022-09-06T01:59:53;98406.84;;;19.42;81.40
9822;BME280;4950;46.042;14.472;2022-09-06T02:02:25;98401.56;;;19.42;81.29
9822;BME280;4950;46.042;14.472;2022-09-06T02:04:58;98409.69;;;19.40;81.43
9822;BME280;4950;46.042;14.472;2022-09-06T02:07:30;98407.72;;;19.10;82.39
9822;BME280;4950;46.042;14.472;2022-09-06T02:10:03;98402.00;;;18.95;83.38
9822;BME280;4950;46.042;14.472;2022-09-06T02:12:33;98401.19;;;18.94;83.27
9822;BME280;4950;46.042;14.472;2022-09-06T02:15:05;98401.78;;;18.97;83.05
9822;BME280;4950;46.042;14.472;2022-09-06T02:17:38;98393.06;;;18.96;82.81
9822;BME280;4950;46.042;14.472;2022-09-06T02:20:09;98393.50;;;18.93;82.97
9822;BME280;4950;46.042;14.472;2022-09-06T02:22:40;98407.72;;;18.85;83.29
9822;BME280;4950;46.042;14.472;2022-09-06T02:25:11;98401.69;;;18.78;83.41
9822;BME280;4950;46.042;14.472;2022-09-06T02:27:38;98397.03;;;18.80;83.50
9822;BME280;4950;46.042;14.472;2022-09-06T02:30:08;98393.63;;;18.80;83.46
9822;BME280;4950;46.042;14.472;2022-09-06T02:32:39;98397.03;;;18.80;83.04
9822;BME280;4950;46.042;14.472;2022-09-06T02:35:12;98396.25;;;18.80;83.00
9822;BME280;4950;46.042;14.472;2022-09-06T02:37:40;98389.56;;;18.77;82.98
9822;BME280;4950;46.042;14.472;2022-09-06T02:40:09;98396.41;;;18.78;82.92
9822;BME280;4950;46.042;14.472;2022-09-06T02:42:35;98397.44;;;18.77;82.96
9822;BME280;4950;46.042;14.472;2022-09-06T02:45:03;98394.22;;;18.75;82.72
9822;BME280;4950;46.042;14.472;2022-09-06T02:47:31;98395.25;;;18.74;83.01
9822;BME280;4950;46.042;14.472;2022-09-06T02:49:57;98396.28;;;18.73;82.96
9822;BME280;4950;46.042;14.472;2022-09-06T02:52:24;98394.06;;;18.70;82.82
9822;BME280;4950;46.042;14.472;2022-09-06T02:54:51;98387.16;;;18.69;82.85
9822;BME280;4950;46.042;14.472;2022-09-06T02:57:18;98387.16;;;18.69;83.03
9822;BME280;4950;46.042;14.472;2022-09-06T02:59:44;98390.63;;;18.69;82.72
9822;BME280;4950;46.042;14.472;2022-09-06T03:02:11;98382.41;;;18.59;83.05
9822;BME280;4950;46.042;14.472;2022-09-06T03:04:39;98385.06;;;18.52;83.41
9822;BME280;4950;46.042;14.472;2022-09-06T03:07:06;98386.78;;;18.40;83.86
9822;BME280;4950;46.042;14.472;2022-09-06T03:09:32;98377.13;;;18.34;84.63
9822;BME280;4950;46.042;14.472;2022-09-06T03:11:59;98374.25;;;18.35;84.39
9822;BME280;4950;46.042;14.472;2022-09-06T03:14:25;98371.22;;;18.39;84.22
9822;BME280;4950;46.042;14.472;2022-09-06T03:16:52;98372.84;;;18.40;84.03
9822;BME280;4950;46.042;14.472;2022-09-06T03:19:19;98370.63;;;18.37;84.16
9822;BME280;4950;46.042;14.472;2022-09-06T03:21:47;98368.16;;;18.42;84.27
9822;BME280;4950;46.042;14.472;2022-09-06T03:24:13;98364.31;;;18.44;83.89
9822;BME280;4950;46.042;14.472;2022-09-06T03:26:40;98361.47;;;18.46;83.66
9822;BME280;4950;46.042;14.472;2022-09-06T03:29:06;98367.53;;;18.46;84.08
9822;BME280;4950;46.042;14.472;2022-09-06T03:31:33;98365.09;;;18.45;84.18
9822;BME280;4950;46.042;14.472;2022-09-06T03:34:00;98366.16;;;18.37;84.06
9822;BME280;4950;46.042;14.472;2022-09-06T03:36:26;98361.75;;;18.31;84.24
9822;BME280;4950;46.042;14.472;2022-09-06T03:38:55;98362.16;;;18.28;84.33
9822;BME280;4950;46.042;14.472;2022-09-06T03:41:22;98363.84;;;18.22;84.25
9822;BME280;4950;46.042;14.472;2022-09-06T03:43:49;98361.44;;;18.14;84.95
9822;BME280;4950;46.042;14.472;2022-09-06T03:46:15;98364.66;;;18.16;84.74
9822;BME280;4950;46.042;14.472;2022-09-06T03:48:42;98360.63;;;18.20;84.59
9822;BME280;4950;46.042;14.472;2022-09-06T03:51:09;98368.06;;;18.23;84.51
9822;BME280;4950;46.042;14.472;2022-09-06T03:53:35;98363.41;;;18.25;84.14
9822;BME280;4950;46.042;14.472;2022-09-06T03:56:04;98369.91;;;18.23;83.85
9822;BME280;4950;46.042;14.472;2022-09-06T03:58:31;98368.66;;;18.25;84.03
9822;BME280;4950;46.042;14.472;2022-09-06T04:01:00;98363.25;;;18.20;83.99
9822;BME280;4950;46.042;14.472;2022-09-06T04:03:26;98372.53;;;18.23;83.97
9822;BME280;4950;46.042;14.472;2022-09-06T04:05:53;98371.94;;;18.21;83.89
9822;BME280;4950;46.042;14.472;2022-09-06T04:08:19;98364.66;;;18.16;84.14
9822;BME280;4950;46.042;14.472;2022-09-06T04:10:48;98371.34;;;18.12;83.90
9822;BME280;4950;46.042;14.472;2022-09-06T04:13:16;98371.94;;;18.14;84.07
9822;BME280;4950;46.042;14.472;2022-09-06T04:15:44;98373.56;;;18.15;83.72
9822;BME280;4950;46.042;14.472;2022-09-06T04:18:11;98384.47;;;18.19;83.77
9822;BME280;4950;46.042;14.472;2022-09-06T04:20:38;98381.84;;;18.19;83.36
9822;BME280;4950;46.042;14.472;2022-09-06T04:23:05;98378.03;;;18.14;83.42
9822;BME280;4950;46.042;14.472;2022-09-06T04:25:31;98378.69;;;18.03;83.55
9822;BME280;4950;46.042;14.472;2022-09-06T04:27:58;98382.19;;;17.90;84.15
9822;BME280;4950;46.042;14.472;2022-09-06T04:30:26;98379.41;;;17.65;84.97
9822;BME280;4950;46.042;14.472;2022-09-06T04:32:53;98383.94;;;17.31;86.65
9822;BME280;4950;46.042;14.472;2022-09-06T04:35:19;98387.16;;;17.33;86.77
9822;BME280;4950;46.042;14.472;2022-09-06T04:37:46;98392.44;;;17.40;86.68
9822;BME280;4950;46.042;14.472;2022-09-06T04:40:12;98382.91;;;17.46;85.99
9822;BME280;4950;46.042;14.472;2022-09-06T04:42:39;98376.84;;;17.45;86.67
9822;BME280;4950;46.042;14.472;2022-09-06T04:45:06;98372.19;;;17.54;86.04
9822;BME280;4950;46.042;14.472;2022-09-06T04:47:34;98373.78;;;17.55;86.11
9822;BME280;4950;46.042;14.472;2022-09-06T04:50:01;98374.41;;;17.50;86.36
9822;BME280;4950;46.042;14.472;2022-09-06T04:52:28;98371.16;;;17.55;85.85
9822;BME280;4950;46.042;14.472;2022-09-06T04:54:54;98375.19;;;17.57;86.24
9822;BME280;4950;46.042;14.472;2022-09-06T04:57:21;98388.94;;;17.53;86.10
9822;BME280;4950;46.042;14.472;2022-09-06T04:59:48;98386.31;;;17.53;86.17
9822;BME280;4950;46.042;14.472;2022-09-06T05:02:14;98385.13;;;17.49;85.91
9822;BME280;4950;46.042;14.472;2022-09-06T05:04:42;98376.25;;;17.50;85.30
9822;BME280;4950;46.042;14.472;2022-09-06T05:07:09;98377.47;;;17.41;85.66
9822;BME280;4950;46.042;14.472;2022-09-06T05:09:36;98391.19;;;17.43;86.23
9822;BME280;4950;46.042;14.472;2022-09-06T05:12:03;98397.25;;;17.43;85.68
9822;BME280;4950;46.042;14.472;2022-09-06T05:14:29;98396.66;;;17.41;85.97
9822;BME280;4950;46.042;14.472;2022-09-06T05:16:56;98395.66;;;17.35;86.22
9822;BME280;4950;46.042;14.472;2022-09-06T05:19:22;98401.28;;;17.39;86.20
9822;BME280;4950;46.042;14.472;2022-09-06T05:21:51;98402.09;;;17.46;85.89
9822;BME280;4950;46.042;14.472;2022-09-06T05:24:17;98402.69;;;17.48;85.62
9822;BME280;4950;46.042;14.472;2022-09-06T05:26:44;98393.41;;;17.46;85.38
9822;BME280;4950;46.042;14.472;2022-09-06T05:29:10;98395.25;;;17.39;86.26
9822;BME280;4950;46.042;14.472;2022-09-06T05:31:37;98397.06;;;17.31;86.17
9822;BME280;4950;46.042;14.472;2022-09-06T05:34:03;98402.13;;;17.26;86.38
9822;BME280;4950;46.042;14.472;2022-09-06T05:36:30;98402.75;;;17.22;85.93
9822;BME280;4950;46.042;14.472;2022-09-06T05:38:58;98408.19;;;17.20;86.27
9822;BME280;4950;46.042;14.472;2022-09-06T05:41:25;98406.75;;;17.24;86.54
9822;BME280;4950;46.042;14.472;2022-09-06T05:43:52;98405.75;;;17.39;85.97
9822;BME280;4950;46.042;14.472;2022-09-06T05:46:19;98403.53;;;17.42;85.83
9822;BME280;4950;46.042;14.472;2022-09-06T05:48:51;98394.03;;;17.48;85.64
9822;BME280;4950;46.042;14.472;2022-09-06T05:51:18;98388.53;;;17.56;85.66
9822;BME280;4950;46.042;14.472;2022-09-06T05:53:45;98383.66;;;17.66;84.87
9822;BME280;4950;46.042;14.472;2022-09-06T05:56:14;98385.25;;;17.74;84.09
9822;BME280;4950;46.042;14.472;2022-09-06T05:58:40;98387.84;;;17.81;83.04
9822;BME280;4950;46.042;14.472;2022-09-06T06:01:13;98391.69;;;17.78;82.98
9822;BME280;4950;46.042;14.472;2022-09-06T06:03:41;98383.81;;;17.85;82.60
9822;BME280;4950;46.042;14.472;2022-09-06T06:06:08;98380.78;;;17.88;82.41
9822;BME280;4950;46.042;14.472;2022-09-06T06:08:35;98380.38;;;17.91;82.49
9822;BME280;4950;46.042;14.472;2022-09-06T06:11:01;98380.53;;;17.96;82.33
9822;BME280;4950;46.042;14.472;2022-09-06T06:13:29;98380.34;;;17.98;82.12
9822;BME280;4950;46.042;14.472;2022-09-06T06:15:59;98385.78;;;17.96;82.04
9822;BME280;4950;46.042;14.472;2022-09-06T06:18:26;98385.78;;;18.03;81.61
9822;BME280;4950;46.042;14.472;2022-09-06T06:21:06;98394.66;;;18.02;81.50
9822;BME280;4950;46.042;14.472;2022-09-06T06:23:32;98390.59;;;18.06;82.80
9822;BME280;4950;46.042;14.472;2022-09-06T06:25:59;98392.22;;;18.07;83.07
9822;BME280;4950;46.042;14.472;2022-09-06T06:28:26;98386.53;;;18.10;82.53
9822;BME280;4950;46.042;14.472;2022-09-06T06:30:53;98390.00;;;18.10;82.67
9822;BME280;4950;46.042;14.472;2022-09-06T06:33:20;98389.75;;;18.12;82.46
9822;BME280;4950;46.042;14.472;2022-09-06T06:35:56;98386.28;;;18.18;82.38
9822;BME280;4950;46.042;14.472;2022-09-06T06:38:22;98379.38;;;18.24;82.28
9822;BME280;4950;46.042;14.472;2022-09-06T06:40:49;98376.72;;;18.30;81.99
9822;BME280;4950;46.042;14.472;2022-09-06T06:43:15;98379.34;;;18.30;81.68
9822;BME280;4950;46.042;14.472;2022-09-06T06:45:47;98379.56;;;18.29;81.41
9822;BME280;4950;46.042;14.472;2022-09-06T06:48:15;98383.97;;;18.35;81.37
9822;BME280;4950;46.042;14.472;2022-09-06T06:50:42;98377.72;;;18.36;81.91
9822;BME280;4950;46.042;14.472;2022-09-06T06:53:08;98383.56;;;18.38;82.38
9822;BME280;4950;46.042;14.472;2022-09-06T06:55:35;98377.00;;;18.47;82.18
9822;BME280;4950;46.042;14.472;2022-09-06T06:58:02;98381.25;;;18.48;81.71
9822;BME280;4950;46.042;14.472;2022-09-06T07:00:28;98379.81;;;18.52;81.66
9822;BME280;4950;46.042;14.472;2022-09-06T07:02:55;98377.56;;;18.56;81.86
9822;BME280;4950;46.042;14.472;2022-09-06T07:05:24;98369.78;;;18.68;81.50
9822;BME280;4950;46.042;14.472;2022-09-06T07:07:51;98377.63;;;18.74;81.19
9822;BME280;4950;46.042;14.472;2022-09-06T07:10:18;98369.09;;;18.79;81.35
9822;BME280;4950;46.042;14.472;2022-09-06T07:12:44;98374.13;;;18.87;81.20
9822;BME280;4950;46.042;14.472;2022-09-06T07:15:11;98375.09;;;18.93;80.83
9822;BME280;4950;46.042;14.472;2022-09-06T07:17:38;98374.28;;;18.92;80.67
9822;BME280;4950;46.042;14.472;2022-09-06T07:20:05;98366.91;;;19.01;80.90
9822;BME280;4950;46.042;14.472;2022-09-06T07:22:34;98371.53;;;19.06;80.51
9822;BME280;4950;46.042;14.472;2022-09-06T07:25:01;98373.06;;;19.13;80.62
9822;BME280;4950;46.042;14.472;2022-09-06T07:27:27;98369.34;;;19.21;80.42
9822;BME280;4950;46.042;14.472;2022-09-06T07:29:54;98366.09;;;19.26;80.01
9822;BME280;4950;46.042;14.472;2022-09-06T07:32:21;98364.53;;;19.37;79.69
9822;BME280;4950;46.042;14.472;2022-09-06T07:34:47;98363.25;;;19.46;79.02
9822;BME280;4950;46.042;14.472;2022-09-06T07:37:14;98362.94;;;19.54;78.70
9822;BME280;4950;46.042;14.472;2022-09-06T07:39:42;98366.09;;;19.63;78.52
9822;BME280;4950;46.042;14.472;2022-09-06T07:42:09;98365.00;;;19.70;77.57
9822;BME280;4950;46.042;14.472;2022-09-06T07:44:36;98360.69;;;19.76;76.79
9822;BME280;4950;46.042;14.472;2022-09-06T07:47:02;98369.31;;;19.83;76.29
9822;BME280;4950;46.042;14.472;2022-09-06T07:49:30;98369.69;;;19.87;76.07
9822;BME280;4950;46.042;14.472;2022-09-06T07:51:57;98372.59;;;19.97;75.77
9822;BME280;4950;46.042;14.472;2022-09-06T07:54:24;98366.56;;;20.08;75.96
9822;BME280;4950;46.042;14.472;2022-09-06T07:56:52;98364.41;;;20.17;75.07
9822;BME280;4950;46.042;14.472;2022-09-06T07:59:18;98372.28;;;20.36;74.14
9822;BME280;4950;46.042;14.472;2022-09-06T08:01:45;98376.88;;;20.40;73.85
9822;BME280;4950;46.042;14.472;2022-09-06T08:04:12;98363.47;;;20.54;73.18
9822;BME280;4950;46.042;14.472;2022-09-06T08:06:41;98361.94;;;20.64;72.15
9822;BME280;4950;46.042;14.472;2022-09-06T08:09:08;98354.41;;;20.92;71.19
9822;BME280;4950;46.042;14.472;2022-09-06T08:11:36;98352.19;;;21.00;71.02
9822;BME280;4950;46.042;14.472;2022-09-06T08:14:06;98349.44;;;21.07;70.85
9822;BME280;4950;46.042;14.472;2022-09-06T08:16:35;98349.69;;;21.17;70.44
9822;BME280;4950;46.042;14.472;2022-09-06T08:19:04;98352.75;;;21.38;69.25
9822;BME280;4950;46.042;14.472;2022-09-06T08:21:32;98347.69;;;21.48;69.56
9822;BME280;4950;46.042;14.472;2022-09-06T08:24:00;98338.94;;;21.59;69.26
9822;BME280;4950;46.042;14.472;2022-09-06T08:26:29;98340.75;;;21.71;69.66
9822;BME280;4950;46.042;14.472;2022-09-06T08:28:57;98345.44;;;21.80;68.91
9822;BME280;4950;46.042;14.472;2022-09-06T08:31:27;98337.91;;;21.89;68.94
9822;BME280;4950;46.042;14.472;2022-09-06T08:33:54;98342.78;;;22.09;67.81
9822;BME280;4950;46.042;14.472;2022-09-06T08:36:21;98339.16;;;22.27;66.69
9822;BME280;4950;46.042;14.472;2022-09-06T08:38:51;98341.19;;;22.37;66.38
9822;BME280;4950;46.042;14.472;2022-09-06T08:41:22;98348.16;;;22.43;66.57
9822;BME280;4950;46.042;14.472;2022-09-06T08:43:52;98346.72;;;22.52;66.03
9822;BME280;4950;46.042;14.472;2022-09-06T08:46:21;98345.69;;;22.70;64.95
9822;BME280;4950;46.042;14.472;2022-09-06T08:48:51;98344.53;;;22.83;64.66
9822;BME280;4950;46.042;14.472;2022-09-06T08:51:38;98344.53;;;23.00;64.28
9822;BME280;4950;46.042;14.472;2022-09-06T08:54:11;98326.16;;;23.10;63.11
9822;BME280;4950;46.042;14.472;2022-09-06T08:56:54;98329.56;;;23.27;62.31
9822;BME280;4950;46.042;14.472;2022-09-06T08:59:24;98319.59;;;23.35;62.79
9822;BME280;4950;46.042;14.472;2022-09-06T09:01:56;98323.19;;;23.45;62.40
9822;BME280;4950;46.042;14.472;2022-09-06T09:04:33;98317.19;;;23.55;62.32
9822;BME280;4950;46.042;14.472;2022-09-06T09:07:06;98315.19;;;23.68;62.57
9822;BME280;4950;46.042;14.472;2022-09-06T09:09:37;98315.97;;;23.90;60.70
9822;BME280;4950;46.042;14.472;2022-09-06T09:12:05;98308.72;;;24.08;60.08
9822;BME280;4950;46.042;14.472;2022-09-06T09:14:34;98312.91;;;24.31;60.63
9822;BME280;4950;46.042;14.472;2022-09-06T09:17:10;98316.63;;;24.57;58.46
9822;BME280;4950;46.042;14.472;2022-09-06T09:19:41;98308.47;;;24.74;58.06
9822;BME280;4950;46.042;14.472;2022-09-06T09:22:08;98310.94;;;24.80;57.88
9822;BME280;4950;46.042;14.472;2022-09-06T09:24:35;98304.84;;;24.85;57.87
9822;BME280;4950;46.042;14.472;2022-09-06T09:27:06;98301.44;;;24.95;57.68
9822;BME280;4950;46.042;14.472;2022-09-06T09:29:55;98292.69;;;24.99;56.75
9822;BME280;4950;46.042;14.472;2022-09-06T09:32:29;98285.22;;;24.91;57.23
9822;BME280;4950;46.042;14.472;2022-09-06T09:35:14;98284.16;;;24.92;57.64
9822;BME280;4950;46.042;14.472;2022-09-06T09:37:41;98287.38;;;24.99;57.25
9822;BME280;4950;46.042;14.472;2022-09-06T09:40:13;98279.69;;;24.98;57.63
9822;BME280;4950;46.042;14.472;2022-09-06T09:42:40;98283.19;;;25.09;57.23
9822;BME280;4950;46.042;14.472;2022-09-06T09:45:23;98281.09;;;25.16;57.41
9822;BME280;4950;46.042;14.472;2022-09-06T09:47:50;98272.69;;;25.29;57.45
9822;BME280;4950;46.042;14.472;2022-09-06T09:50:26;98262.38;;;25.53;55.29
9822;BME280;4950;46.042;14.472;2022-09-06T09:52:54;98264.81;;;25.65;55.02
9822;BME280;4950;46.042;14.472;2022-09-06T09:55:22;98267.75;;;25.79;54.94
9822;BME280;4950;46.042;14.472;2022-09-06T09:57:49;98261.38;;;25.90;54.93
9822;BME280;4950;46.042;14.472;2022-09-06T10:00:32;98254.50;;;26.10;54.19
9822;BME280;4950;46.042;14.472;2022-09-06T10:03:00;98257.16;;;26.25;53.52
9822;BME280;4950;46.042;14.472;2022-09-06T10:05:28;98253.44;;;26.31;52.63
9822;BME280;4950;46.042;14.472;2022-09-06T10:07:56;98250.75;;;26.36;51.85
9822;BME280;4950;46.042;14.472;2022-09-06T10:10:25;98258.47;;;26.43;51.97
9822;BME280;4950;46.042;14.472;2022-09-06T10:13:06;98255.56;;;26.60;51.92
9822;BME280;4950;46.042;14.472;2022-09-06T10:15:34;98246.50;;;26.61;50.31
9822;BME280;4950;46.042;14.472;2022-09-06T10:18:02;98243.00;;;26.66;50.88
9822;BME280;4950;46.042;14.472;2022-09-06T10:20:34;98236.81;;;26.91;51.26
9822;BME280;4950;46.042;14.472;2022-09-06T10:23:09;98232.47;;;27.15;49.61
9822;BME280;4950;46.042;14.472;2022-09-06T10:25:39;98226.81;;;27.32;49.76
9822;BME280;4950;46.042;14.472;2022-09-06T10:28:26;98225.13;;;27.47;49.69
9822;BME280;4950;46.042;14.472;2022-09-06T10:31:11;98219.97;;;27.61;47.53
9822;BME280;4950;46.042;14.472;2022-09-06T10:33:52;98219.53;;;27.48;47.54
9822;BME280;4950;46.042;14.472;2022-09-06T10:36:27;98209.06;;;27.57;47.43
9822;BME280;4950;46.042;14.472;2022-09-06T10:38:57;98211.59;;;27.77;47.32
9822;BME280;4950;46.042;14.472;2022-09-06T10:41:41;98213.81;;;28.05;46.70
9822;BME280;4950;46.042;14.472;2022-09-06T10:44:22;98206.22;;;28.17;46.04
9822;BME280;4950;46.042;14.472;2022-09-06T10:46:57;98209.13;;;28.21;45.57
9822;BME280;4950;46.042;14.472;2022-09-06T10:49:26;98205.31;;;28.27;46.62
9822;BME280;4950;46.042;14.472;2022-09-06T10:51:56;98209.16;;;28.45;46.15
9822;BME280;4950;46.042;14.472;2022-09-06T10:54:26;98199.19;;;28.55;46.19
9822;BME280;4950;46.042;14.472;2022-09-06T10:56:58;98199.03;;;28.71;45.97
9822;BME280;4950;46.042;14.472;2022-09-06T10:59:29;98194.28;;;28.87;46.04
9822;BME280;4950;46.042;14.472;2022-09-06T11:02:07;98193.41;;;28.91;45.05
9822;BME280;4950;46.042;14.472;2022-09-06T11:04:39;98184.66;;;28.86;44.93
9822;BME280;4950;46.042;14.472;2022-09-06T11:07:12;98185.25;;;29.02;44.69
9822;BME280;4950;46.042;14.472;2022-09-06T11:09:44;98180.97;;;29.25;43.87
9822;BME280;4950;46.042;14.472;2022-09-06T11:12:16;98174.34;;;29.41;43.32
9822;BME280;4950;46.042;14.472;2022-09-06T11:14:44;98171.00;;;29.49;43.10
9822;BME280;4950;46.042;14.472;2022-09-06T11:17:14;98166.56;;;29.59;43.44
9822;BME280;4950;46.042;14.472;2022-09-06T11:19:47;98174.03;;;29.81;42.72
9822;BME280;4950;46.042;14.472;2022-09-06T11:22:30;98161.34;;;29.86;43.20
9822;BME280;4950;46.042;14.472;2022-09-06T11:25:21;98159.50;;;30.01;42.77
9822;BME280;4950;46.042;14.472;2022-09-06T11:27:54;98163.28;;;30.14;42.74
9822;BME280;4950;46.042;14.472;2022-09-06T11:30:22;98154.41;;;29.99;42.16
9822;BME280;4950;46.042;14.472;2022-09-06T11:32:50;98156.88;;;29.96;41.82
9822;BME280;4950;46.042;14.472;2022-09-06T11:35:31;98154.81;;;29.92;42.25
9822;BME280;4950;46.042;14.472;2022-09-06T11:38:01;98148.78;;;30.15;42.09
9822;BME280;4950;46.042;14.472;2022-09-06T11:40:35;98139.28;;;30.22;41.93
9822;BME280;4950;46.042;14.472;2022-09-06T11:43:39;98137.72;;;30.21;42.15
9822;BME280;4950;46.042;14.472;2022-09-06T11:46:04;98143.66;;;30.18;41.38
9822;BME280;4950;46.042;14.472;2022-09-06T11:48:47;98142.44;;;30.24;40.11
9822;BME280;4950;46.042;14.472;2022-09-06T11:51:31;98131.88;;;30.47;40.33
9822;BME280;4950;46.042;14.472;2022-09-06T11:54:33;98126.91;;;30.54;39.42
9822;BME280;4950;46.042;14.472;2022-09-06T11:57:09;98127.38;;;30.70;38.43
9822;BME280;4950;46.042;14.472;2022-09-06T11:59:46;98131.03;;;30.88;38.38
9822;BME280;4950;46.042;14.472;2022-09-06T12:02:33;98118.84;;;30.96;38.37
9822;BME280;4950;46.042;14.472;2022-09-06T12:05:30;98119.63;;;30.96;38.39
9822;BME280;4950;46.042;14.472;2022-09-06T12:08:31;98118.84;;;30.96;36.78
9822;BME280;4950;46.042;14.472;2022-09-06T12:11:05;98118.16;;;31.13;36.75
9822;BME280;4950;46.042;14.472;2022-09-06T12:13:51;98111.28;;;31.20;38.95
9822;BME280;4950;46.042;14.472;2022-09-06T12:16:18;98104.69;;;31.26;38.78
9822;BME280;4950;46.042;14.472;2022-09-06T12:18:53;98096.91;;;31.16;39.12
9822;BME280;4950;46.042;14.472;2022-09-06T12:21:42;98099.19;;;31.23;38.89
9822;BME280;4950;46.042;14.472;2022-09-06T12:27:15;98090.53;;;30.89;39.26
9822;BME280;4950;46.042;14.472;2022-09-06T12:29:54;98096.34;;;31.05;38.59
9822;BME280;4950;46.042;14.472;2022-09-06T12:32:25;98095.91;;;31.12;38.41
9822;BME280;4950;46.042;14.472;2022-09-06T12:34:54;98092.56;;;31.06;38.82
9822;BME280;4950;46.042;14.472;2022-09-06T12:37:33;98087.81;;;31.03;38.99
9822;BME280;4950;46.042;14.472;2022-09-06T12:40:03;98078.06;;;31.07;37.83
9822;BME280;4950;46.042;14.472;2022-09-06T12:42:33;98072.25;;;30.92;38.61
9822;BME280;4950;46.042;14.472;2022-09-06T12:45:03;98068.13;;;31.08;37.91
9822;BME280;4950;46.042;14.472;2022-09-06T12:47:32;98069.75;;;30.95;36.81
9822;BME280;4950;46.042;14.472;2022-09-06T12:50:10;98063.13;;;31.15;36.29
9822;BME280;4950;46.042;14.472;2022-09-06T12:52:50;98064.94;;;31.28;37.09
9822;BME280;4950;46.042;14.472;2022-09-06T12:55:22;98062.31;;;31.37;36.35
9822;BME280;4950;46.042;14.472;2022-09-06T12:57:53;98060.38;;;31.29;35.53
9822;BME280;4950;46.042;14.472;2022-09-06T13:00:22;98053.44;;;31.05;36.57
9822;BME280;4950;46.042;14.472;2022-09-06T13:02:57;98054.28;;;31.15;37.03
9822;BME280;4950;46.042;14.472;2022-09-06T13:05:27;98050.31;;;30.76;35.79
9822;BME280;4950;46.042;14.472;2022-09-06T13:07:56;98064.44;;;30.67;36.04
9822;BME280;4950;46.042;14.472;2022-09-06T13:10:25;98048.69;;;30.88;35.99
9822;BME280;4950;46.042;14.472;2022-09-06T13:12:55;98050.03;;;31.14;34.88
9822;BME280;4950;46.042;14.472;2022-09-06T13:15:25;98045.75;;;31.35;34.90
9822;BME280;4950;46.042;14.472;2022-09-06T13:17:52;98036.72;;;31.54;34.71
9822;BME280;4950;46.042;14.472;2022-09-06T13:20:25;98039.78;;;31.69;35.43
9822;BME280;4950;46.042;14.472;2022-09-06T13:23:04;98047.53;;;31.71;36.57
9822;BME280;4950;46.042;14.472;2022-09-06T13:25:32;98041.84;;;31.73;36.51
9822;BME280;4950;46.042;14.472;2022-09-06T13:28:00;98039.47;;;31.71;36.92
9822;BME280;4950;46.042;14.472;2022-09-06T13:30:36;98042.53;;;31.87;36.70
9822;BME280;4950;46.042;14.472;2022-09-06T13:33:04;98030.06;;;31.91;36.54
9822;BME280;4950;46.042;14.472;2022-09-06T13:35:33;98035.44;;;31.82;36.89
9822;BME280;4950;46.042;14.472;2022-09-06T13:38:30;98035.22;;;31.70;36.50